Saturday, November 18, 2017, 9:33 PM GMT
Back to Local

CWSS, St. Stephen, N. B.

Location: , , Canada Lat: 45.217
Local Time: 9:33 PM GMT (21:33 GMT) Lon: -67.25
Time Zone: GMT Elev: 85 ft

Show me the last for .
Show Decoded

2017-11-18 21:00 METAR CWSS 182100Z AUTO 00000KT M00/M04 RMK AO1 SOG 00 8009 SLP088 T10031044 =
2017-11-18 20:00 METAR CWSS 182000Z AUTO 30002KT 02/M06 RMK AO1 SOG 00 6003 SLP094 T00181060 =
2017-11-18 19:00 METAR CWSS 181900Z AUTO 28003KT 02/M06 RMK AO1 SOG 00 6011 SLP094 T00221062 =
2017-11-18 18:00 METAR CWSS 181800Z AUTO 26003KT 02/M06 RMK AO1 SOG 00 6018 SLP097 T00231059 =
2017-11-18 17:00 METAR CWSS 181700Z AUTO 26005KT 02/M06 RMK AO1 SOG 00 8019 SLP097 T00211063 =
2017-11-18 16:00 METAR CWSS 181600Z AUTO 33007KT 02/M06 RMK AO1 SOG 00 8008 SLP105 T00201055 =
2017-11-18 15:00 METAR CWSS 181500Z AUTO 30006KT M00/M08 RMK AO1 SOG 00 5000 SLP115 T10021077 =
2017-11-18 14:00 METAR CWSS 181400Z AUTO 30006KT M01/M08 RMK AO1 SOG 00 1005 SLP116 T10121079 =
2017-11-18 13:00 METAR CWSS 181300Z AUTO 33005KT M03/M08 RMK AO1 SOG 00 0005 SLP113 T10281076 =
2017-11-18 12:00 METAR CWSS 181200Z AUTO 28004KT M05/M08 RMK AO1 SOG 00 1016 SLP115 T10461076 =
2017-11-18 11:00 METAR CWSS 181100Z AUTO 29004KT M05/M08 RMK AO1 SOG 00 1017 SLP111 T10461078 =
2017-11-18 10:00 METAR CWSS 181000Z AUTO 29005KT M04/M08 RMK AO1 SOG 00 3018 SLP108 T10421077 =
2017-11-18 09:00 METAR CWSS 180900Z AUTO 27005KT M04/M08 RMK AO1 SOG 00 3013 SLP099 T10401080 =
2017-11-18 08:00 METAR CWSS 180800Z AUTO 28007KT M04/M08 RMK AO1 SOG 00 3011 SLP094 T10371080 =
2017-11-18 07:00 METAR CWSS 180700Z AUTO 29007KT M03/M08 RMK AO1 SOG 00 3010 SLP090 T10341079 =
2017-11-18 06:00 METAR CWSS 180600Z AUTO 30007KT M03/M08 RMK AO1 SOG 00 2009 PK WND 30019/0502
                 SLP086 T10311078 =
2017-11-18 05:00 METAR CWSS 180500Z AUTO 30010G15KT M03/M07 RMK AO1 SOG 00 1011 PK WND 31018/0440
                 SLP083 T10251073 =
2017-11-18 04:00 METAR CWSS 180400Z AUTO 30008G18KT M02/M07 RMK AO1 SOG 00 1020 PK WND 29019/0344
                 SLP080 T10191071 =
2017-11-18 03:00 METAR CWSS 180300Z AUTO 30009G16KT M01/M07 RMK AO1 SOG 00 2022 PK WND 31023/0233
                 SLP077 T10141068 =
2017-11-18 02:00 METAR CWSS 180200Z AUTO 29011G22KT M01/M06 RMK AO1 SOG 00 3017 PK WND 30026/0100
                 SLP072 T10081062 =
2017-11-18 01:00 METAR CWSS 180100Z AUTO 29011G21KT 01/M06 RMK AO1 SOG 00 1014 PK WND 28024/0047
                 SLP059 T00051057 =
2017-11-18 00:00 METAR CWSS 180000Z AUTO 29011G18KT M00/M05 RMK AO1 SOG 00 1020 PK WND 28024/2339
                 SLP054 T10031047 =
2017-11-17 23:00 METAR CWSS 172300Z AUTO 28009G15KT M00/M04 RMK AO1 SOG 00 1031 PK WND 29021/2201
                 SLP054 T10011040 =
2017-11-17 22:00 METAR CWSS 172200Z AUTO 29010G17KT 01/M03 RMK AO1 SOG 00 3031 PK WND 29026/2104
                 SLP045 T00131031 =

Support USWX by starting your Amazon purchase here.